sensor_id;sensor_type;location;lat;lon;timestamp;temperature;humidity
8231;DHT22;4156;50.908;6.974;2022-11-20T00:01:17;5.50;99.90
8231;DHT22;4156;50.908;6.974;2022-11-20T00:03:43;5.50;99.90
8231;DHT22;4156;50.908;6.974;2022-11-20T00:06:12;5.50;99.90
8231;DHT22;4156;50.908;6.974;2022-11-20T00:08:38;5.50;99.90
8231;DHT22;4156;50.908;6.974;2022-11-20T00:11:05;5.40;99.90
8231;DHT22;4156;50.908;6.974;2022-11-20T00:13:31;5.40;99.90
8231;DHT22;4156;50.908;6.974;2022-11-20T00:15:58;5.40;99.90
8231;DHT22;4156;50.908;6.974;2022-11-20T00:18:24;5.50;99.90
8231;DHT22;4156;50.908;6.974;2022-11-20T00:20:50;5.40;99.90
8231;DHT22;4156;50.908;6.974;2022-11-20T00:23:15;5.40;99.90
8231;DHT22;4156;50.908;6.974;2022-11-20T00:25:40;5.30;99.90
8231;DHT22;4156;50.908;6.974;2022-11-20T00:28:06;5.30;99.90
8231;DHT22;4156;50.908;6.974;2022-11-20T00:30:31;5.30;99.90
8231;DHT22;4156;50.908;6.974;2022-11-20T00:32:57;5.30;99.90
8231;DHT22;4156;50.908;6.974;2022-11-20T00:35:23;5.30;99.90
8231;DHT22;4156;50.908;6.974;2022-11-20T00:37:48;5.30;99.90
8231;DHT22;4156;50.908;6.974;2022-11-20T00:40:14;5.50;99.90
8231;DHT22;4156;50.908;6.974;2022-11-20T00:42:39;5.30;99.90
8231;DHT22;4156;50.908;6.974;2022-11-20T00:45:05;5.30;99.90
8231;DHT22;4156;50.908;6.974;2022-11-20T00:47:31;5.30;99.90
8231;DHT22;4156;50.908;6.974;2022-11-20T00:49:56;5.30;99.90
8231;DHT22;4156;50.908;6.974;2022-11-20T00:52:22;5.30;99.90
8231;DHT22;4156;50.908;6.974;2022-11-20T00:54:47;5.30;99.90
8231;DHT22;4156;50.908;6.974;2022-11-20T00:57:13;5.30;99.90
8231;DHT22;4156;50.908;6.974;2022-11-20T00:59:38;5.30;99.90
8231;DHT22;4156;50.908;6.974;2022-11-20T01:02:04;5.30;99.90
8231;DHT22;4156;50.908;6.974;2022-11-20T01:04:29;5.30;99.90
8231;DHT22;4156;50.908;6.974;2022-11-20T01:06:55;5.30;99.90
8231;DHT22;4156;50.908;6.974;2022-11-20T01:09:20;5.30;99.90
8231;DHT22;4156;50.908;6.974;2022-11-20T01:11:46;5.30;99.90
8231;DHT22;4156;50.908;6.974;2022-11-20T01:14:14;5.30;99.90
8231;DHT22;4156;50.908;6.974;2022-11-20T01:16:43;5.30;99.90
8231;DHT22;4156;50.908;6.974;2022-11-20T01:19:11;5.30;99.90
8231;DHT22;4156;50.908;6.974;2022-11-20T01:21:39;5.30;99.90
8231;DHT22;4156;50.908;6.974;2022-11-20T01:24:07;5.30;99.90
8231;DHT22;4156;50.908;6.974;2022-11-20T01:26:37;5.30;99.90
8231;DHT22;4156;50.908;6.974;2022-11-20T01:29:04;5.30;99.90
8231;DHT22;4156;50.908;6.974;2022-11-20T01:31:35;5.30;99.90
8231;DHT22;4156;50.908;6.974;2022-11-20T01:34:06;5.30;99.90
8231;DHT22;4156;50.908;6.974;2022-11-20T01:36:33;5.30;99.90
8231;DHT22;4156;50.908;6.974;2022-11-20T01:39:02;5.30;99.90
8231;DHT22;4156;50.908;6.974;2022-11-20T01:41:29;5.30;99.90
8231;DHT22;4156;50.908;6.974;2022-11-20T01:44:17;5.30;99.90
8231;DHT22;4156;50.908;6.974;2022-11-20T01:46:58;5.30;99.90
8231;DHT22;4156;50.908;6.974;2022-11-20T01:49:30;5.30;99.90
8231;DHT22;4156;50.908;6.974;2022-11-20T01:52:04;5.30;99.90
8231;DHT22;4156;50.908;6.974;2022-11-20T01:54:35;5.20;99.90
8231;DHT22;4156;50.908;6.974;2022-11-20T01:57:01;5.20;99.90
8231;DHT22;4156;50.908;6.974;2022-11-20T01:59:29;5.20;99.90
8231;DHT22;4156;50.908;6.974;2022-11-20T02:01:55;5.20;99.90
8231;DHT22;4156;50.908;6.974;2022-11-20T02:04:21;5.30;99.90
8231;DHT22;4156;50.908;6.974;2022-11-20T02:07:10;5.30;99.90
8231;DHT22;4156;50.908;6.974;2022-11-20T02:09:35;5.30;99.90
8231;DHT22;4156;50.908;6.974;2022-11-20T02:12:00;5.30;99.90
8231;DHT22;4156;50.908;6.974;2022-11-20T02:14:26;5.30;99.90
8231;DHT22;4156;50.908;6.974;2022-11-20T02:16:54;5.30;99.90
8231;DHT22;4156;50.908;6.974;2022-11-20T02:19:28;5.20;99.90
8231;DHT22;4156;50.908;6.974;2022-11-20T02:22:35;5.20;99.90
8231;DHT22;4156;50.908;6.974;2022-11-20T02:25:02;5.20;99.90
8231;DHT22;4156;50.908;6.974;2022-11-20T02:27:29;5.20;99.90
8231;DHT22;4156;50.908;6.974;2022-11-20T02:32:30;5.20;99.90
8231;DHT22;4156;50.908;6.974;2022-11-20T02:34:56;5.20;99.90
8231;DHT22;4156;50.908;6.974;2022-11-20T02:37:23;5.20;99.90
8231;DHT22;4156;50.908;6.974;2022-11-20T02:39:52;5.20;99.90
8231;DHT22;4156;50.908;6.974;2022-11-20T02:42:18;5.10;99.90
8231;DHT22;4156;50.908;6.974;2022-11-20T02:44:44;5.10;99.90
8231;DHT22;4156;50.908;6.974;2022-11-20T02:47:09;5.10;99.90
8231;DHT22;4156;50.908;6.974;2022-11-20T02:49:35;5.10;99.90
8231;DHT22;4156;50.908;6.974;2022-11-20T02:52:01;5.10;99.90
8231;DHT22;4156;50.908;6.974;2022-11-20T02:54:26;5.10;99.90
8231;DHT22;4156;50.908;6.974;2022-11-20T02:56:52;5.10;99.90
8231;DHT22;4156;50.908;6.974;2022-11-20T02:59:17;5.10;99.90
8231;DHT22;4156;50.908;6.974;2022-11-20T03:01:43;5.20;99.90
8231;DHT22;4156;50.908;6.974;2022-11-20T03:04:08;5.20;99.90
8231;DHT22;4156;50.908;6.974;2022-11-20T03:06:34;5.20;99.90
8231;DHT22;4156;50.908;6.974;2022-11-20T03:08:59;5.20;99.90
8231;DHT22;4156;50.908;6.974;2022-11-20T03:11:25;5.20;99.90
8231;DHT22;4156;50.908;6.974;2022-11-20T03:13:50;5.20;99.90
8231;DHT22;4156;50.908;6.974;2022-11-20T03:16:19;5.10;99.90
8231;DHT22;4156;50.908;6.974;2022-11-20T03:18:44;5.10;99.90
8231;DHT22;4156;50.908;6.974;2022-11-20T03:21:12;5.10;99.90
8231;DHT22;4156;50.908;6.974;2022-11-20T03:23:38;5.10;99.90
8231;DHT22;4156;50.908;6.974;2022-11-20T03:26:19;5.10;99.90
8231;DHT22;4156;50.908;6.974;2022-11-20T03:28:49;5.10;99.90
8231;DHT22;4156;50.908;6.974;2022-11-20T03:31:17;5.10;99.90
8231;DHT22;4156;50.908;6.974;2022-11-20T03:33:43;5.10;99.90
8231;DHT22;4156;50.908;6.974;2022-11-20T03:36:11;5.10;99.90
8231;DHT22;4156;50.908;6.974;2022-11-20T03:38:37;5.10;99.90
8231;DHT22;4156;50.908;6.974;2022-11-20T03:41:05;5.10;99.90
8231;DHT22;4156;50.908;6.974;2022-11-20T03:43:32;5.10;99.90
8231;DHT22;4156;50.908;6.974;2022-11-20T03:45:58;5.10;99.90
8231;DHT22;4156;50.908;6.974;2022-11-20T03:48:24;5.10;99.90
8231;DHT22;4156;50.908;6.974;2022-11-20T03:50:49;5.10;99.90
8231;DHT22;4156;50.908;6.974;2022-11-20T03:53:15;5.10;99.90
8231;DHT22;4156;50.908;6.974;2022-11-20T03:55:42;5.10;99.90
8231;DHT22;4156;50.908;6.974;2022-11-20T03:58:08;5.20;99.90
8231;DHT22;4156;50.908;6.974;2022-11-20T04:00:33;5.20;99.90
8231;DHT22;4156;50.908;6.974;2022-11-20T04:02:59;5.20;99.90
8231;DHT22;4156;50.908;6.974;2022-11-20T04:05:25;5.20;99.90
8231;DHT22;4156;50.908;6.974;2022-11-20T04:07:51;5.10;99.90
8231;DHT22;4156;50.908;6.974;2022-11-20T04:10:16;5.10;99.90
8231;DHT22;4156;50.908;6.974;2022-11-20T04:12:42;5.10;99.90
8231;DHT22;4156;50.908;6.974;2022-11-20T04:15:08;5.10;99.90
8231;DHT22;4156;50.908;6.974;2022-11-20T04:17:33;5.10;99.90
8231;DHT22;4156;50.908;6.974;2022-11-20T04:19:59;5.10;99.90
8231;DHT22;4156;50.908;6.974;2022-11-20T04:22:25;5.10;99.90
8231;DHT22;4156;50.908;6.974;2022-11-20T04:24:50;5.10;99.90
8231;DHT22;4156;50.908;6.974;2022-11-20T04:27:16;5.10;99.90
8231;DHT22;4156;50.908;6.974;2022-11-20T04:29:41;5.10;99.90
8231;DHT22;4156;50.908;6.974;2022-11-20T04:32:07;5.10;99.90
8231;DHT22;4156;50.908;6.974;2022-11-20T04:34:32;5.10;99.90
8231;DHT22;4156;50.908;6.974;2022-11-20T04:36:58;5.10;99.90
8231;DHT22;4156;50.908;6.974;2022-11-20T04:39:24;5.10;99.90
8231;DHT22;4156;50.908;6.974;2022-11-20T04:41:49;5.10;99.90
8231;DHT22;4156;50.908;6.974;2022-11-20T04:44:35;5.10;99.90
8231;DHT22;4156;50.908;6.974;2022-11-20T04:47:00;5.10;99.90
8231;DHT22;4156;50.908;6.974;2022-11-20T04:49:26;5.10;99.90
8231;DHT22;4156;50.908;6.974;2022-11-20T04:51:53;5.10;99.90
8231;DHT22;4156;50.908;6.974;2022-11-20T04:54:19;5.10;99.90
8231;DHT22;4156;50.908;6.974;2022-11-20T04:56:47;5.10;99.90
8231;DHT22;4156;50.908;6.974;2022-11-20T04:59:13;5.10;99.90
8231;DHT22;4156;50.908;6.974;2022-11-20T05:01:39;5.10;99.90
8231;DHT22;4156;50.908;6.974;2022-11-20T05:04:04;5.10;99.90
8231;DHT22;4156;50.908;6.974;2022-11-20T05:06:31;5.10;99.90
8231;DHT22;4156;50.908;6.974;2022-11-20T05:08:57;5.00;99.90
8231;DHT22;4156;50.908;6.974;2022-11-20T05:11:23;5.00;99.90
8231;DHT22;4156;50.908;6.974;2022-11-20T05:13:50;5.10;99.90
8231;DHT22;4156;50.908;6.974;2022-11-20T05:16:21;5.10;99.90
8231;DHT22;4156;50.908;6.974;2022-11-20T05:18:47;5.10;99.90
8231;DHT22;4156;50.908;6.974;2022-11-20T05:21:14;5.10;99.90
8231;DHT22;4156;50.908;6.974;2022-11-20T05:23:40;5.20;99.90
8231;DHT22;4156;50.908;6.974;2022-11-20T05:26:07;5.20;99.90
8231;DHT22;4156;50.908;6.974;2022-11-20T05:28:34;5.20;99.90
8231;DHT22;4156;50.908;6.974;2022-11-20T05:31:11;5.20;99.90
8231;DHT22;4156;50.908;6.974;2022-11-20T05:33:39;5.20;99.90
8231;DHT22;4156;50.908;6.974;2022-11-20T05:36:05;5.20;99.90
8231;DHT22;4156;50.908;6.974;2022-11-20T05:38:31;5.20;99.90
8231;DHT22;4156;50.908;6.974;2022-11-20T05:41:08;5.20;99.90
8231;DHT22;4156;50.908;6.974;2022-11-20T05:43:35;5.20;99.90
8231;DHT22;4156;50.908;6.974;2022-11-20T05:46:02;5.20;99.90
8231;DHT22;4156;50.908;6.974;2022-11-20T05:48:27;5.20;99.90
8231;DHT22;4156;50.908;6.974;2022-11-20T05:50:53;5.20;99.90
8231;DHT22;4156;50.908;6.974;2022-11-20T05:53:19;5.20;99.90
8231;DHT22;4156;50.908;6.974;2022-11-20T05:55:44;5.30;99.90
8231;DHT22;4156;50.908;6.974;2022-11-20T05:58:09;5.20;99.90
8231;DHT22;4156;50.908;6.974;2022-11-20T06:00:35;5.30;99.90
8231;DHT22;4156;50.908;6.974;2022-11-20T06:03:01;5.20;99.90
8231;DHT22;4156;50.908;6.974;2022-11-20T06:05:26;5.20;99.90
8231;DHT22;4156;50.908;6.974;2022-11-20T06:07:52;5.30;99.90
8231;DHT22;4156;50.908;6.974;2022-11-20T06:10:18;5.20;99.90
8231;DHT22;4156;50.908;6.974;2022-11-20T06:12:43;5.30;99.90
8231;DHT22;4156;50.908;6.974;2022-11-20T06:15:09;5.30;99.90
8231;DHT22;4156;50.908;6.974;2022-11-20T06:17:34;5.30;99.90
8231;DHT22;4156;50.908;6.974;2022-11-20T06:20:00;5.40;99.90
8231;DHT22;4156;50.908;6.974;2022-11-20T06:22:26;5.30;99.90
8231;DHT22;4156;50.908;6.974;2022-11-20T06:24:51;5.40;99.90
8231;DHT22;4156;50.908;6.974;2022-11-20T06:27:17;5.30;99.90
8231;DHT22;4156;50.908;6.974;2022-11-20T06:29:42;5.30;99.90
8231;DHT22;4156;50.908;6.974;2022-11-20T06:32:08;5.30;99.90
8231;DHT22;4156;50.908;6.974;2022-11-20T06:34:33;5.30;99.90
8231;DHT22;4156;50.908;6.974;2022-11-20T06:36:59;5.30;99.90
8231;DHT22;4156;50.908;6.974;2022-11-20T06:39:24;5.30;99.90
8231;DHT22;4156;50.908;6.974;2022-11-20T06:41:50;5.20;99.90
8231;DHT22;4156;50.908;6.974;2022-11-20T06:44:15;5.20;99.90
8231;DHT22;4156;50.908;6.974;2022-11-20T06:46:41;5.20;99.90
8231;DHT22;4156;50.908;6.974;2022-11-20T06:49:06;5.20;99.90
8231;DHT22;4156;50.908;6.974;2022-11-20T06:51:32;5.20;99.90
8231;DHT22;4156;50.908;6.974;2022-11-20T06:53:57;5.20;99.90
8231;DHT22;4156;50.908;6.974;2022-11-20T06:56:23;5.20;99.90
8231;DHT22;4156;50.908;6.974;2022-11-20T06:58:48;5.20;99.90
8231;DHT22;4156;50.908;6.974;2022-11-20T07:01:15;5.20;99.90
8231;DHT22;4156;50.908;6.974;2022-11-20T07:03:41;5.20;99.90
8231;DHT22;4156;50.908;6.974;2022-11-20T07:06:07;5.20;99.90
8231;DHT22;4156;50.908;6.974;2022-11-20T07:08:33;5.20;99.90
8231;DHT22;4156;50.908;6.974;2022-11-20T07:11:00;5.20;99.90
8231;DHT22;4156;50.908;6.974;2022-11-20T07:13:27;5.20;99.90
8231;DHT22;4156;50.908;6.974;2022-11-20T07:15:53;5.20;99.90
8231;DHT22;4156;50.908;6.974;2022-11-20T07:18:18;5.20;99.90
8231;DHT22;4156;50.908;6.974;2022-11-20T07:20:44;5.20;99.90
8231;DHT22;4156;50.908;6.974;2022-11-20T07:23:09;5.20;99.90
8231;DHT22;4156;50.908;6.974;2022-11-20T07:25:35;5.20;99.90
8231;DHT22;4156;50.908;6.974;2022-11-20T07:28:01;5.20;99.90
8231;DHT22;4156;50.908;6.974;2022-11-20T07:30:27;5.20;99.90
8231;DHT22;4156;50.908;6.974;2022-11-20T07:32:55;5.30;99.90
8231;DHT22;4156;50.908;6.974;2022-11-20T07:35:21;5.20;99.90
8231;DHT22;4156;50.908;6.974;2022-11-20T07:37:47;5.20;99.90
8231;DHT22;4156;50.908;6.974;2022-11-20T07:40:14;5.20;99.90
8231;DHT22;4156;50.908;6.974;2022-11-20T07:42:47;5.30;99.90
8231;DHT22;4156;50.908;6.974;2022-11-20T07:45:14;5.30;99.90
8231;DHT22;4156;50.908;6.974;2022-11-20T07:47:39;5.30;99.90
8231;DHT22;4156;50.908;6.974;2022-11-20T07:50:05;5.40;99.90
8231;DHT22;4156;50.908;6.974;2022-11-20T07:52:31;5.40;99.90
8231;DHT22;4156;50.908;6.974;2022-11-20T07:54:56;5.50;99.90
8231;DHT22;4156;50.908;6.974;2022-11-20T07:57:22;5.50;99.90
8231;DHT22;4156;50.908;6.974;2022-11-20T07:59:47;5.50;99.90
8231;DHT22;4156;50.908;6.974;2022-11-20T08:02:12;5.50;99.90
8231;DHT22;4156;50.908;6.974;2022-11-20T08:04:38;5.40;99.90
8231;DHT22;4156;50.908;6.974;2022-11-20T08:07:03;5.40;99.90
8231;DHT22;4156;50.908;6.974;2022-11-20T08:09:29;5.40;99.90
8231;DHT22;4156;50.908;6.974;2022-11-20T08:11:54;5.40;99.90
8231;DHT22;4156;50.908;6.974;2022-11-20T08:14:39;5.40;99.90
8231;DHT22;4156;50.908;6.974;2022-11-20T08:17:04;5.40;99.90
8231;DHT22;4156;50.908;6.974;2022-11-20T08:19:30;5.40;99.90
8231;DHT22;4156;50.908;6.974;2022-11-20T08:21:55;5.40;99.90
8231;DHT22;4156;50.908;6.974;2022-11-20T08:24:21;5.40;99.90
8231;DHT22;4156;50.908;6.974;2022-11-20T08:26:46;5.30;99.90
8231;DHT22;4156;50.908;6.974;2022-11-20T08:29:12;5.40;99.90
8231;DHT22;4156;50.908;6.974;2022-11-20T08:31:37;5.40;99.90
8231;DHT22;4156;50.908;6.974;2022-11-20T08:34:03;5.40;99.90
8231;DHT22;4156;50.908;6.974;2022-11-20T08:36:28;5.30;99.90
8231;DHT22;4156;50.908;6.974;2022-11-20T08:38:55;5.30;99.90
8231;DHT22;4156;50.908;6.974;2022-11-20T08:41:21;5.30;99.90
8231;DHT22;4156;50.908;6.974;2022-11-20T08:43:52;5.30;99.90
8231;DHT22;4156;50.908;6.974;2022-11-20T08:46:17;5.40;99.90
8231;DHT22;4156;50.908;6.974;2022-11-20T08:48:44;5.40;99.90
8231;DHT22;4156;50.908;6.974;2022-11-20T08:51:09;5.40;99.90
8231;DHT22;4156;50.908;6.974;2022-11-20T08:53:35;5.40;99.90
8231;DHT22;4156;50.908;6.974;2022-11-20T08:56:00;5.30;99.90
8231;DHT22;4156;50.908;6.974;2022-11-20T08:58:26;5.40;99.90
8231;DHT22;4156;50.908;6.974;2022-11-20T09:00:52;5.40;99.90
8231;DHT22;4156;50.908;6.974;2022-11-20T09:03:18;5.40;99.90
8231;DHT22;4156;50.908;6.974;2022-11-20T09:05:44;5.40;99.90
8231;DHT22;4156;50.908;6.974;2022-11-20T09:08:09;5.40;99.90
8231;DHT22;4156;50.908;6.974;2022-11-20T09:10:35;5.40;99.90
8231;DHT22;4156;50.908;6.974;2022-11-20T09:13:01;5.40;99.90
8231;DHT22;4156;50.908;6.974;2022-11-20T09:15:27;5.40;99.90
8231;DHT22;4156;50.908;6.974;2022-11-20T09:17:58;5.50;99.90
8231;DHT22;4156;50.908;6.974;2022-11-20T09:20:24;5.50;99.90
8231;DHT22;4156;50.908;6.974;2022-11-20T09:22:50;5.50;99.90
8231;DHT22;4156;50.908;6.974;2022-11-20T09:25:16;5.50;99.90
8231;DHT22;4156;50.908;6.974;2022-11-20T09:27:42;5.50;99.90
8231;DHT22;4156;50.908;6.974;2022-11-20T09:30:10;5.50;99.90
8231;DHT22;4156;50.908;6.974;2022-11-20T09:32:36;5.50;99.90
8231;DHT22;4156;50.908;6.974;2022-11-20T09:35:01;4.90;99.90
8231;DHT22;4156;50.908;6.974;2022-11-20T09:37:27;5.50;99.90
8231;DHT22;4156;50.908;6.974;2022-11-20T09:39:53;5.50;99.90
8231;DHT22;4156;50.908;6.974;2022-11-20T09:55:36;5.60;99.90
8231;DHT22;4156;50.908;6.974;2022-11-20T09:58:12;5.60;99.90
8231;DHT22;4156;50.908;6.974;2022-11-20T10:00:39;5.60;99.90
8231;DHT22;4156;50.908;6.974;2022-11-20T10:03:21;5.60;99.90
8231;DHT22;4156;50.908;6.974;2022-11-20T10:05:53;5.60;99.90
8231;DHT22;4156;50.908;6.974;2022-11-20T10:10:52;5.60;99.90
8231;DHT22;4156;50.908;6.974;2022-11-20T10:16:19;5.70;99.90
8231;DHT22;4156;50.908;6.974;2022-11-20T10:18:58;5.60;99.90
8231;DHT22;4156;50.908;6.974;2022-11-20T10:27:39;5.70;99.90
8231;DHT22;4156;50.908;6.974;2022-11-20T10:30:12;5.70;99.90
8231;DHT22;4156;50.908;6.974;2022-11-20T10:32:43;5.60;99.90
8231;DHT22;4156;50.908;6.974;2022-11-20T10:35:16;5.60;99.90
8231;DHT22;4156;50.908;6.974;2022-11-20T10:37:46;5.70;99.90
8231;DHT22;4156;50.908;6.974;2022-11-20T10:42:59;5.70;99.90
8231;DHT22;4156;50.908;6.974;2022-11-20T10:50:25;5.70;99.90
8231;DHT22;4156;50.908;6.974;2022-11-20T10:53:14;5.70;99.90
8231;DHT22;4156;50.908;6.974;2022-11-20T10:55:55;5.70;99.90
8231;DHT22;4156;50.908;6.974;2022-11-20T10:58:45;5.70;99.90
8231;DHT22;4156;50.908;6.974;2022-11-20T11:01:18;5.70;99.90
8231;DHT22;4156;50.908;6.974;2022-11-20T11:03:44;5.80;99.90
8231;DHT22;4156;50.908;6.974;2022-11-20T11:06:28;5.80;99.90
8231;DHT22;4156;50.908;6.974;2022-11-20T11:09:00;5.80;99.90
8231;DHT22;4156;50.908;6.974;2022-11-20T11:11:30;5.80;99.90
8231;DHT22;4156;50.908;6.974;2022-11-20T11:14:11;5.80;99.90
8231;DHT22;4156;50.908;6.974;2022-11-20T11:16:49;5.80;99.90
8231;DHT22;4156;50.908;6.974;2022-11-20T11:19:15;5.80;99.90
8231;DHT22;4156;50.908;6.974;2022-11-20T11:21:53;5.80;99.90
8231;DHT22;4156;50.908;6.974;2022-11-20T11:24:23;5.80;99.90
8231;DHT22;4156;50.908;6.974;2022-11-20T11:27:13;5.80;99.90
8231;DHT22;4156;50.908;6.974;2022-11-20T11:29:39;5.80;99.90
8231;DHT22;4156;50.908;6.974;2022-11-20T11:32:12;5.90;99.90
8231;DHT22;4156;50.908;6.974;2022-11-20T11:34:38;5.90;99.90
8231;DHT22;4156;50.908;6.974;2022-11-20T11:37:04;5.90;99.90
8231;DHT22;4156;50.908;6.974;2022-11-20T11:39:32;5.90;99.90
8231;DHT22;4156;50.908;6.974;2022-11-20T11:41:59;5.90;99.90
8231;DHT22;4156;50.908;6.974;2022-11-20T11:44:31;5.90;99.90
8231;DHT22;4156;50.908;6.974;2022-11-20T11:52:48;6.00;99.90
8231;DHT22;4156;50.908;6.974;2022-11-20T11:55:20;6.00;99.90
8231;DHT22;4156;50.908;6.974;2022-11-20T12:00:51;6.00;99.90
8231;DHT22;4156;50.908;6.974;2022-11-20T12:03:22;6.00;99.90
8231;DHT22;4156;50.908;6.974;2022-11-20T12:05:57;6.00;99.90
8231;DHT22;4156;50.908;6.974;2022-11-20T12:08:24;6.00;99.90
8231;DHT22;4156;50.908;6.974;2022-11-20T12:10:57;6.00;99.90
8231;DHT22;4156;50.908;6.974;2022-11-20T12:13:27;6.00;99.90
8231;DHT22;4156;50.908;6.974;2022-11-20T12:15:58;6.00;99.90
8231;DHT22;4156;50.908;6.974;2022-11-20T12:18:23;6.00;99.90
8231;DHT22;4156;50.908;6.974;2022-11-20T12:21:19;6.10;99.90
8231;DHT22;4156;50.908;6.974;2022-11-20T12:27:12;6.10;99.90
8231;DHT22;4156;50.908;6.974;2022-11-20T12:41:14;6.10;99.90
8231;DHT22;4156;50.908;6.974;2022-11-20T12:50:02;6.10;99.90
8231;DHT22;4156;50.908;6.974;2022-11-20T12:53:02;6.10;99.90
8231;DHT22;4156;50.908;6.974;2022-11-20T12:55:41;6.10;99.90
8231;DHT22;4156;50.908;6.974;2022-11-20T12:58:39;6.20;99.90
8231;DHT22;4156;50.908;6.974;2022-11-20T13:06:43;6.20;99.90
8231;DHT22;4156;50.908;6.974;2022-11-20T13:09:12;6.20;99.90
8231;DHT22;4156;50.908;6.974;2022-11-20T13:11:47;6.20;99.90
8231;DHT22;4156;50.908;6.974;2022-11-20T13:14:41;6.20;99.90
8231;DHT22;4156;50.908;6.974;2022-11-20T13:19:39;6.30;99.90
8231;DHT22;4156;50.908;6.974;2022-11-20T13:22:05;6.30;99.90
8231;DHT22;4156;50.908;6.974;2022-11-20T13:24:32;6.30;99.90
8231;DHT22;4156;50.908;6.974;2022-11-20T13:27:16;6.30;99.90
8231;DHT22;4156;50.908;6.974;2022-11-20T13:30:10;6.30;99.90
8231;DHT22;4156;50.908;6.974;2022-11-20T13:32:54;6.40;99.90
8231;DHT22;4156;50.908;6.974;2022-11-20T13:35:40;6.40;99.90
8231;DHT22;4156;50.908;6.974;2022-11-20T13:38:12;6.40;99.90
8231;DHT22;4156;50.908;6.974;2022-11-20T13:40:54;6.40;99.90
8231;DHT22;4156;50.908;6.974;2022-11-20T13:43:28;6.30;99.90
8231;DHT22;4156;50.908;6.974;2022-11-20T13:48:23;6.40;99.90
8231;DHT22;4156;50.908;6.974;2022-11-20T13:51:03;6.40;99.90
8231;DHT22;4156;50.908;6.974;2022-11-20T13:53:52;6.40;99.90
8231;DHT22;4156;50.908;6.974;2022-11-20T14:01:49;6.50;99.90
8231;DHT22;4156;50.908;6.974;2022-11-20T14:04:19;6.50;99.90
8231;DHT22;4156;50.908;6.974;2022-11-20T14:06:46;6.50;99.90
8231;DHT22;4156;50.908;6.974;2022-11-20T14:09:25;6.50;99.90
8231;DHT22;4156;50.908;6.974;2022-11-20T14:11:51;6.50;99.90
8231;DHT22;4156;50.908;6.974;2022-11-20T14:14:19;6.50;99.90
8231;DHT22;4156;50.908;6.974;2022-11-20T14:16:46;6.50;99.90
8231;DHT22;4156;50.908;6.974;2022-11-20T14:21:48;6.50;99.90
8231;DHT22;4156;50.908;6.974;2022-11-20T14:24:18;6.60;99.90
8231;DHT22;4156;50.908;6.974;2022-11-20T14:26:44;6.60;99.90
8231;DHT22;4156;50.908;6.974;2022-11-20T14:29:22;6.60;99.90
8231;DHT22;4156;50.908;6.974;2022-11-20T14:31:52;6.60;99.90
8231;DHT22;4156;50.908;6.974;2022-11-20T14:34:21;6.60;99.90
8231;DHT22;4156;50.908;6.974;2022-11-20T14:36:47;6.60;99.90
8231;DHT22;4156;50.908;6.974;2022-11-20T14:41:55;6.60;99.90
8231;DHT22;4156;50.908;6.974;2022-11-20T14:44:25;6.60;99.90
8231;DHT22;4156;50.908;6.974;2022-11-20T14:46:51;6.60;99.90
8231;DHT22;4156;50.908;6.974;2022-11-20T14:49:18;6.70;99.90
8231;DHT22;4156;50.908;6.974;2022-11-20T14:51:43;6.70;99.90
8231;DHT22;4156;50.908;6.974;2022-11-20T14:54:15;6.70;99.90
8231;DHT22;4156;50.908;6.974;2022-11-20T14:56:41;6.70;99.90
8231;DHT22;4156;50.908;6.974;2022-11-20T14:59:08;6.70;99.90
8231;DHT22;4156;50.908;6.974;2022-11-20T15:01:35;6.70;99.90
8231;DHT22;4156;50.908;6.974;2022-11-20T15:04:10;6.70;99.90
8231;DHT22;4156;50.908;6.974;2022-11-20T15:06:37;6.70;99.90
8231;DHT22;4156;50.908;6.974;2022-11-20T15:09:04;6.70;99.90
8231;DHT22;4156;50.908;6.974;2022-11-20T15:11:33;6.70;99.90
8231;DHT22;4156;50.908;6.974;2022-11-20T15:14:05;6.70;99.90
8231;DHT22;4156;50.908;6.974;2022-11-20T15:16:31;6.70;99.90
8231;DHT22;4156;50.908;6.974;2022-11-20T15:18:57;6.80;99.90
8231;DHT22;4156;50.908;6.974;2022-11-20T15:21:23;6.80;99.90
8231;DHT22;4156;50.908;6.974;2022-11-20T15:23:49;6.70;99.90
8231;DHT22;4156;50.908;6.974;2022-11-20T15:26:25;6.80;99.90
8231;DHT22;4156;50.908;6.974;2022-11-20T15:28:51;6.80;99.90
8231;DHT22;4156;50.908;6.974;2022-11-20T15:31:20;6.80;99.90
8231;DHT22;4156;50.908;6.974;2022-11-20T15:33:46;6.80;99.90
8231;DHT22;4156;50.908;6.974;2022-11-20T15:36:12;6.80;99.90
8231;DHT22;4156;50.908;6.974;2022-11-20T15:38:37;6.80;99.90
8231;DHT22;4156;50.908;6.974;2022-11-20T15:41:03;6.80;99.90
8231;DHT22;4156;50.908;6.974;2022-11-20T15:43:29;6.80;99.90
8231;DHT22;4156;50.908;6.974;2022-11-20T15:46:03;6.90;99.90
8231;DHT22;4156;50.908;6.974;2022-11-20T15:48:34;6.90;99.90
8231;DHT22;4156;50.908;6.974;2022-11-20T15:51:27;6.80;99.90
8231;DHT22;4156;50.908;6.974;2022-11-20T15:53:55;6.90;99.90
8231;DHT22;4156;50.908;6.974;2022-11-20T15:56:20;6.80;99.90
8231;DHT22;4156;50.908;6.974;2022-11-20T15:58:46;6.90;99.90
8231;DHT22;4156;50.908;6.974;2022-11-20T16:01:14;6.80;99.90
8231;DHT22;4156;50.908;6.974;2022-11-20T16:03:40;6.80;99.90
8231;DHT22;4156;50.908;6.974;2022-11-20T16:06:05;6.90;99.90
8231;DHT22;4156;50.908;6.974;2022-11-20T16:08:31;6.90;99.90
8231;DHT22;4156;50.908;6.974;2022-11-20T16:10:56;6.90;99.90
8231;DHT22;4156;50.908;6.974;2022-11-20T16:13:22;6.90;99.90
8231;DHT22;4156;50.908;6.974;2022-11-20T16:16:22;6.90;99.90
8231;DHT22;4156;50.908;6.974;2022-11-20T16:18:49;6.90;99.90
8231;DHT22;4156;50.908;6.974;2022-11-20T16:21:14;7.00;99.90
8231;DHT22;4156;50.908;6.974;2022-11-20T16:23:41;6.90;99.90
8231;DHT22;4156;50.908;6.974;2022-11-20T16:26:12;7.00;99.90
8231;DHT22;4156;50.908;6.974;2022-11-20T16:28:37;7.00;99.90
8231;DHT22;4156;50.908;6.974;2022-11-20T16:31:11;7.00;99.90
8231;DHT22;4156;50.908;6.974;2022-11-20T16:33:36;7.00;99.90
8231;DHT22;4156;50.908;6.974;2022-11-20T16:36:13;7.00;99.90
8231;DHT22;4156;50.908;6.974;2022-11-20T16:38:39;7.00;99.90
8231;DHT22;4156;50.908;6.974;2022-11-20T16:41:05;7.00;99.90
8231;DHT22;4156;50.908;6.974;2022-11-20T16:43:31;7.00;99.90
8231;DHT22;4156;50.908;6.974;2022-11-20T16:45:57;7.00;99.90
8231;DHT22;4156;50.908;6.974;2022-11-20T16:48:22;7.00;99.90
8231;DHT22;4156;50.908;6.974;2022-11-20T16:50:50;7.00;99.90
8231;DHT22;4156;50.908;6.974;2022-11-20T16:53:21;7.10;99.90
8231;DHT22;4156;50.908;6.974;2022-11-20T16:55:47;7.10;99.90
8231;DHT22;4156;50.908;6.974;2022-11-20T16:58:13;7.00;99.90
8231;DHT22;4156;50.908;6.974;2022-11-20T17:00:40;7.10;99.90
8231;DHT22;4156;50.908;6.974;2022-11-20T17:03:05;7.10;99.90
8231;DHT22;4156;50.908;6.974;2022-11-20T17:05:32;7.10;99.90
8231;DHT22;4156;50.908;6.974;2022-11-20T17:07:57;7.10;99.90
8231;DHT22;4156;50.908;6.974;2022-11-20T17:10:23;7.10;99.90
8231;DHT22;4156;50.908;6.974;2022-11-20T17:12:48;7.10;99.90
8231;DHT22;4156;50.908;6.974;2022-11-20T17:15:14;7.10;99.90
8231;DHT22;4156;50.908;6.974;2022-11-20T17:17:39;7.10;99.90
8231;DHT22;4156;50.908;6.974;2022-11-20T17:20:05;7.10;99.90
8231;DHT22;4156;50.908;6.974;2022-11-20T17:22:31;7.10;99.90
8231;DHT22;4156;50.908;6.974;2022-11-20T17:24:57;7.10;99.90
8231;DHT22;4156;50.908;6.974;2022-11-20T17:27:22;7.10;99.90
8231;DHT22;4156;50.908;6.974;2022-11-20T17:29:48;7.10;99.90
8231;DHT22;4156;50.908;6.974;2022-11-20T17:32:13;7.10;99.90
8231;DHT22;4156;50.908;6.974;2022-11-20T17:34:39;7.10;99.90
8231;DHT22;4156;50.908;6.974;2022-11-20T17:37:05;7.10;99.90
8231;DHT22;4156;50.908;6.974;2022-11-20T17:39:31;7.10;99.90
8231;DHT22;4156;50.908;6.974;2022-11-20T17:41:56;7.10;99.90
8231;DHT22;4156;50.908;6.974;2022-11-20T17:44:41;7.10;99.90
8231;DHT22;4156;50.908;6.974;2022-11-20T17:47:07;7.10;99.90
8231;DHT22;4156;50.908;6.974;2022-11-20T17:49:32;7.10;99.90
8231;DHT22;4156;50.908;6.974;2022-11-20T17:51:58;7.10;99.90